Time;durP1;ratioP1;P1;durP2;ratioP2;P2;SDS_P1;SDS_P2;PMS_P1;PMS_P2;Temp;Humidity;BMP_temperature;BMP_pressure;BME280_temperature;BME280_humidity;BME280_pressure;Samples;Min_cycle;Max_cycle;Signal;HPM_P1;HPM_P2
2023/08/02 00:02:32;;;;;;;3.90;1.27;;;;;;;;;;10152016;29;20054;-90
2023/08/02 00:07:36;;;;;;;2.55;1.45;;;;;;;;;;10152617;29;20080;-90
2023/08/02 00:12:40;;;;;;;2.17;1.20;;;;;;;;;;10149494;29;20103;-90
2023/08/02 00:17:45;;;;;;;3.50;1.35;;;;;;;;;;10147961;29;20111;-92
2023/08/02 00:22:48;;;;;;;3.45;1.30;;;;;;;;;;10181561;29;20119;-91
2023/08/02 00:27:52;;;;;;;1.58;0.88;;;;;;;;;;10160092;29;20048;-91
2023/08/02 00:32:57;;;;;;;2.30;1.08;;;;;;;;;;10160788;29;20138;-91
2023/08/02 00:38:01;;;;;;;1.63;0.90;;;;;;;;;;10169554;29;20048;-91
2023/08/02 00:43:05;;;;;;;1.23;0.73;;;;;;;;;;10180265;29;20052;-92
2023/08/02 00:48:11;;;;;;;1.23;0.70;;;;;;;;;;10161010;29;20044;-90
2023/08/02 00:53:15;;;;;;;1.10;0.70;;;;;;;;;;10150491;29;20052;-91
2023/08/02 00:58:18;;;;;;;1.10;0.55;;;;;;;;;;10149412;29;20044;-91
2023/08/02 01:03:24;;;;;;;1.20;0.38;;;;;;;;;;10153056;29;20044;-90
2023/08/02 01:08:32;;;;;;;0.55;0.55;;;;;;;;;;10150481;29;20047;-90
2023/08/02 01:13:40;;;;;;;0.70;0.57;;;;;;;;;;10149588;29;20532;-90
2023/08/02 01:18:45;;;;;;;0.93;0.50;;;;;;;;;;10166991;29;20048;-89
2023/08/02 01:23:52;;;;;;;0.70;0.40;;;;;;;;;;10154229;29;20048;-89
2023/08/02 01:28:59;;;;;;;1.15;0.60;;;;;;;;;;10153482;29;20059;-90
2023/08/02 01:34:03;;;;;;;1.08;0.50;;;;;;;;;;10151543;29;20044;-90
2023/08/02 01:39:09;;;;;;;0.40;0.40;;;;;;;;;;10154631;29;20150;-89
2023/08/02 01:44:15;;;;;;;0.60;0.57;;;;;;;;;;10146564;29;20408;-90
2023/08/02 01:49:18;;;;;;;0.85;0.63;;;;;;;;;;10149172;29;20702;-90
2023/08/02 01:54:23;;;;;;;0.80;0.60;;;;;;;;;;10156047;29;20040;-90
2023/08/02 01:59:27;;;;;;;0.93;0.50;;;;;;;;;;10150403;29;20044;-90
2023/08/02 02:04:35;;;;;;;1.98;0.70;;;;;;;;;;10163331;29;20206;-91
2023/08/02 02:09:40;;;;;;;0.65;0.43;;;;;;;;;;10153793;29;20058;-91
2023/08/02 02:14:43;;;;;;;0.43;0.43;;;;;;;;;;10148873;29;20056;-90
2023/08/02 02:19:47;;;;;;;0.70;0.70;;;;;;;;;;10142048;29;20515;-90
2023/08/02 02:24:52;;;;;;;1.85;0.82;;;;;;;;;;10147194;29;20136;-90
2023/08/02 02:29:55;;;;;;;1.60;0.60;;;;;;;;;;10149044;29;20067;-90
2023/08/02 02:34:59;;;;;;;1.20;1.00;;;;;;;;;;10147221;29;20047;-90
2023/08/02 02:40:05;;;;;;;1.52;0.75;;;;;;;;;;10174690;29;20048;-90
2023/08/02 02:45:09;;;;;;;0.80;0.60;;;;;;;;;;10152611;29;20048;-90
2023/08/02 02:50:13;;;;;;;1.85;0.80;;;;;;;;;;10151246;29;20078;-90
2023/08/02 02:55:18;;;;;;;1.27;0.75;;;;;;;;;;10145860;29;20076;-90
2023/08/02 03:00:22;;;;;;;1.08;0.70;;;;;;;;;;10154342;29;20048;-90
2023/08/02 03:05:25;;;;;;;1.30;0.70;;;;;;;;;;10156318;29;20040;-90
2023/08/02 03:10:32;;;;;;;2.22;0.73;;;;;;;;;;10153585;29;20052;-91
2023/08/02 03:15:36;;;;;;;3.65;0.85;;;;;;;;;;10165917;29;20111;-90
2023/08/02 03:20:40;;;;;;;1.20;0.85;;;;;;;;;;10151373;29;20148;-90
2023/08/02 03:25:45;;;;;;;0.73;0.68;;;;;;;;;;10158572;29;20078;-90
2023/08/02 03:30:49;;;;;;;0.50;0.50;;;;;;;;;;10144568;29;20059;-91
2023/08/02 03:35:52;;;;;;;5.13;0.90;;;;;;;;;;10150683;29;20062;-91
2023/08/02 03:40:57;;;;;;;1.40;0.75;;;;;;;;;;10153219;29;20051;-92
2023/08/02 03:46:02;;;;;;;1.42;0.90;;;;;;;;;;10167810;29;20512;-90
2023/08/02 03:51:08;;;;;;;2.10;1.00;;;;;;;;;;10184136;28;20040;-93
2023/08/02 03:56:17;;;;;;;2.50;0.95;;;;;;;;;;10193940;28;20044;-93
2023/08/02 04:49:11;;;;;;;1.60;0.98;;;;;;;;;;10200976;23;20116;-82
2023/08/02 04:54:15;;;;;;;1.20;0.77;;;;;;;;;;10230415;28;20506;-82
2023/08/02 04:59:19;;;;;;;0.93;0.77;;;;;;;;;;10199940;29;20052;-82
2023/08/02 05:04:24;;;;;;;1.75;0.90;;;;;;;;;;10199571;29;20054;-83
2023/08/02 05:09:27;;;;;;;2.13;1.00;;;;;;;;;;10203379;29;20050;-82
2023/08/02 05:14:31;;;;;;;3.33;1.30;;;;;;;;;;10197971;29;20701;-83
2023/08/02 05:19:36;;;;;;;2.10;1.20;;;;;;;;;;10200951;29;20056;-83
2023/08/02 05:24:41;;;;;;;3.58;1.10;;;;;;;;;;10195923;29;20055;-83
2023/08/02 05:29:45;;;;;;;2.47;1.10;;;;;;;;;;10193272;29;20078;-83
2023/08/02 05:34:50;;;;;;;2.03;1.08;;;;;;;;;;10182422;29;20109;-84
2023/08/02 05:39:53;;;;;;;2.55;1.48;;;;;;;;;;10200012;29;20462;-83
2023/08/02 05:44:57;;;;;;;2.15;1.00;;;;;;;;;;10200783;29;20060;-83
2023/08/02 05:50:02;;;;;;;1.88;1.33;;;;;;;;;;10202870;29;20314;-84
2023/08/02 05:55:07;;;;;;;1.77;1.20;;;;;;;;;;10182314;29;20063;-85
2023/08/02 06:00:12;;;;;;;1.98;1.20;;;;;;;;;;10203677;29;20078;-84
2023/08/02 06:05:17;;;;;;;2.35;0.98;;;;;;;;;;10188876;29;20044;-85
2023/08/02 06:10:21;;;;;;;2.47;0.90;;;;;;;;;;10208740;29;20055;-85
2023/08/02 06:15:25;;;;;;;1.30;0.90;;;;;;;;;;10181853;29;20129;-84
2023/08/02 06:20:30;;;;;;;1.42;0.80;;;;;;;;;;10203174;29;20056;-84
2023/08/02 06:25:34;;;;;;;2.30;0.85;;;;;;;;;;10197500;29;20413;-84
2023/08/02 06:30:38;;;;;;;1.48;1.00;;;;;;;;;;10196696;29;20052;-84
2023/08/02 06:35:43;;;;;;;0.80;0.80;;;;;;;;;;10209041;29;20048;-84
2023/08/02 06:40:47;;;;;;;1.02;0.85;;;;;;;;;;10187103;29;20804;-84
2023/08/02 06:45:50;;;;;;;1.15;0.90;;;;;;;;;;10188695;29;20111;-84
2023/08/02 06:50:55;;;;;;;1.20;1.10;;;;;;;;;;10179580;29;20107;-84
2023/08/02 06:55:59;;;;;;;0.85;0.60;;;;;;;;;;10191522;29;20060;-84
2023/08/02 07:01:11;;;;;;;0.90;0.60;;;;;;;;;;10188456;29;20062;-85
2023/08/02 07:06:22;;;;;;;0.43;0.43;;;;;;;;;;10175468;29;20044;-85
2023/08/02 07:11:29;;;;;;;0.80;0.70;;;;;;;;;;10171705;29;20104;-85
2023/08/02 07:16:38;;;;;;;0.75;0.63;;;;;;;;;;10182531;29;20051;-84
2023/08/02 07:21:43;;;;;;;0.63;0.63;;;;;;;;;;10184419;29;20063;-85
2023/08/02 07:26:47;;;;;;;0.68;0.60;;;;;;;;;;10192006;29;20387;-85
2023/08/02 07:31:50;;;;;;;0.40;0.40;;;;;;;;;;10180317;29;20429;-84
2023/08/02 07:36:56;;;;;;;0.60;0.50;;;;;;;;;;10184128;29;20455;-85
2023/08/02 07:42:00;;;;;;;0.50;0.40;;;;;;;;;;10158030;29;20060;-84
2023/08/02 07:47:03;;;;;;;0.55;0.47;;;;;;;;;;10192626;29;20048;-84
2023/08/02 07:52:09;;;;;;;0.88;0.40;;;;;;;;;;10207755;29;20047;-84
2023/08/02 07:57:12;;;;;;;0.35;0.32;;;;;;;;;;10171063;29;20055;-84
2023/08/02 08:02:16;;;;;;;0.60;0.30;;;;;;;;;;10192844;29;20111;-84
2023/08/02 08:07:21;;;;;;;0.20;0.20;;;;;;;;;;10197827;29;20052;-84
2023/08/02 08:12:25;;;;;;;0.20;0.20;;;;;;;;;;10198377;29;20119;-84
2023/08/02 08:17:29;;;;;;;0.20;0.20;;;;;;;;;;10205126;29;20047;-84
2023/08/02 08:22:34;;;;;;;0.45;0.20;;;;;;;;;;10201984;29;20056;-85
2023/08/02 08:27:38;;;;;;;0.40;0.40;;;;;;;;;;10197773;29;20050;-85
2023/08/02 08:32:41;;;;;;;1.15;0.63;;;;;;;;;;10213081;29;20044;-84
2023/08/02 08:37:49;;;;;;;0.22;0.20;;;;;;;;;;10215187;29;20048;-84
2023/08/02 08:42:54;;;;;;;0.10;0.10;;;;;;;;;;10202606;29;20051;-84
2023/08/02 08:47:57;;;;;;;0.10;0.10;;;;;;;;;;10196696;29;20096;-84
2023/08/02 08:53:09;;;;;;;0.10;0.10;;;;;;;;;;10175718;29;20079;-85
2023/08/02 08:58:16;;;;;;;0.10;0.10;;;;;;;;;;10198076;29;20647;-84
2023/08/02 09:03:21;;;;;;;0.10;0.10;;;;;;;;;;10197077;29;20048;-84
2023/08/02 09:08:26;;;;;;;0.00;0.00;;;;;;;;;;10193771;29;20051;-84
2023/08/02 09:13:30;;;;;;;0.10;0.10;;;;;;;;;;10215887;29;20293;-84
2023/08/02 09:18:38;;;;;;;0.15;0.10;;;;;;;;;;10190022;29;20044;-84
2023/08/02 09:23:47;;;;;;;0.00;0.00;;;;;;;;;;10210943;29;20051;-84
2023/08/02 09:29:02;;;;;;;4.38;0.40;;;;;;;;;;10214185;29;20637;-84
2023/08/02 09:34:06;;;;;;;0.10;0.10;;;;;;;;;;10214319;29;20059;-84
2023/08/02 09:39:14;;;;;;;0.17;0.10;;;;;;;;;;10202012;29;20497;-83
2023/08/02 09:44:21;;;;;;;0.10;0.10;;;;;;;;;;10194425;29;20601;-84
2023/08/02 09:49:25;;;;;;;0.10;0.10;;;;;;;;;;10195583;29;20131;-84
2023/08/02 09:54:31;;;;;;;0.03;0.00;;;;;;;;;;10206255;29;20048;-85
2023/08/02 09:59:35;;;;;;;;;;;;;;;;;;10189915;29;20062;-84
2023/08/02 10:04:39;;;;;;;0.20;0.17;;;;;;;;;;10187874;29;19923;-83
2023/08/02 10:09:44;;;;;;;0.30;0.10;;;;;;;;;;10212729;29;20056;-84
2023/08/02 10:14:50;;;;;;;0.10;0.03;;;;;;;;;;10194254;29;20537;-84
2023/08/02 10:19:55;;;;;;;0.10;0.10;;;;;;;;;;10198080;29;20071;-84
2023/08/02 10:25:01;;;;;;;0.20;0.10;;;;;;;;;;10215538;29;20059;-84
2023/08/02 10:30:06;;;;;;;0.00;0.00;;;;;;;;;;10185217;29;20062;-83
2023/08/02 10:35:10;;;;;;;0.00;0.00;;;;;;;;;;10199388;29;20044;-85
2023/08/02 10:40:15;;;;;;;0.00;0.00;;;;;;;;;;10198222;29;20052;-84
2023/08/02 10:45:19;;;;;;;0.00;0.00;;;;;;;;;;10211770;29;20082;-84
2023/08/02 10:50:48;;;;;;;0.10;0.10;;;;;;;;;;10196629;29;20059;-83
2023/08/02 10:56:16;;;;;;;0.00;0.00;;;;;;;;;;10186199;29;20055;-83
2023/08/02 11:01:20;;;;;;;0.00;0.00;;;;;;;;;;10181808;29;20087;-83
2023/08/02 11:06:25;;;;;;;0.10;0.10;;;;;;;;;;10187148;29;20219;-83
2023/08/02 11:11:32;;;;;;;0.00;0.00;;;;;;;;;;10190396;29;20053;-84
2023/08/02 11:16:42;;;;;;;0.20;0.00;;;;;;;;;;10196703;29;20047;-83
2023/08/02 11:21:57;;;;;;;0.00;0.00;;;;;;;;;;10212943;29;20118;-83
2023/08/02 11:27:02;;;;;;;0.00;0.00;;;;;;;;;;10211822;29;20532;-83
2023/08/02 11:32:07;;;;;;;0.00;0.00;;;;;;;;;;10291023;23;20650;-89
2023/08/02 11:37:12;;;;;;;0.00;0.00;;;;;;;;;;10137979;29;20292;-89
2023/08/02 11:42:20;;;;;;;0.00;0.00;;;;;;;;;;10109213;29;20270;-89
2023/08/02 11:47:34;;;;;;;0.00;0.00;;;;;;;;;;10117585;29;20508;-89
2023/08/02 11:52:40;;;;;;;0.10;0.00;;;;;;;;;;10141554;29;20534;-90
2023/08/02 11:57:49;;;;;;;0.20;0.00;;;;;;;;;;10106155;29;20065;-89
2023/08/02 12:03:07;;;;;;;0.08;0.00;;;;;;;;;;10126895;29;20416;-90
2023/08/02 12:08:14;;;;;;;0.00;0.00;;;;;;;;;;10105798;29;20583;-91
2023/08/02 12:13:21;;;;;;;0.00;0.00;;;;;;;;;;10130948;29;20057;-90
2023/08/02 12:18:26;;;;;;;0.00;0.00;;;;;;;;;;10133629;29;20059;-89
2023/08/02 12:23:31;;;;;;;0.10;0.10;;;;;;;;;;10133635;29;20063;-89
2023/08/02 12:28:52;;;;;;;0.00;0.00;;;;;;;;;;10113192;29;20045;-90
2023/08/02 12:34:01;;;;;;;0.22;0.00;;;;;;;;;;10119735;29;20480;-89
2023/08/02 12:39:07;;;;;;;0.00;0.00;;;;;;;;;;10120417;29;20061;-90
2023/08/02 12:44:18;;;;;;;0.38;0.17;;;;;;;;;;10116714;29;20072;-90
2023/08/02 12:49:37;;;;;;;0.10;0.10;;;;;;;;;;10121911;29;20143;-90
2023/08/02 12:54:41;;;;;;;0.00;0.00;;;;;;;;;;10124711;29;20055;-89
2023/08/02 12:59:51;;;;;;;0.00;0.00;;;;;;;;;;10131640;29;20063;-90
2023/08/02 13:05:03;;;;;;;0.10;0.08;;;;;;;;;;10118146;29;20059;-91
2023/08/02 13:10:08;;;;;;;0.35;0.10;;;;;;;;;;10116024;29;20792;-92
2023/08/02 13:15:21;;;;;;;0.52;0.20;;;;;;;;;;10111042;29;20048;-90
2023/08/02 13:20:27;;;;;;;0.10;0.10;;;;;;;;;;10124902;29;20085;-87
2023/08/02 13:25:38;;;;;;;0.10;0.10;;;;;;;;;;10114929;29;20110;-88
2023/08/02 13:30:46;;;;;;;0.00;0.00;;;;;;;;;;10131606;29;20109;-90
2023/08/02 13:35:50;;;;;;;0.08;0.08;;;;;;;;;;10090286;29;20045;-89
2023/08/02 13:40:58;;;;;;;0.45;0.10;;;;;;;;;;10085410;29;20060;-88
2023/08/02 13:46:04;;;;;;;0.17;0.08;;;;;;;;;;10111831;29;20778;-89
2023/08/02 13:51:10;;;;;;;0.03;0.00;;;;;;;;;;10093315;29;20159;-89
2023/08/02 13:56:19;;;;;;;;;;;;;;;;;;10107159;29;20627;-89
2023/08/02 14:01:30;;;;;;;0.05;0.05;;;;;;;;;;10096728;29;19923;-89
2023/08/02 14:06:35;;;;;;;1.25;0.10;;;;;;;;;;10102402;29;20080;-87
2023/08/02 14:11:44;;;;;;;0.00;0.00;;;;;;;;;;10098652;29;20056;-88
2023/08/02 14:16:49;;;;;;;0.60;0.10;;;;;;;;;;10098089;29;20702;-88
2023/08/02 14:22:02;;;;;;;0.00;0.00;;;;;;;;;;10101220;29;20083;-89
2023/08/02 14:27:07;;;;;;;0.10;0.10;;;;;;;;;;10093633;29;20262;-88
2023/08/02 14:32:12;;;;;;;;;;;;;;;;;;10096484;29;20105;-87
2023/08/02 14:37:16;;;;;;;0.20;0.20;;;;;;;;;;10129678;29;19959;-86
2023/08/02 14:42:26;;;;;;;0.20;0.20;;;;;;;;;;10133853;29;20071;-89
2023/08/02 14:47:34;;;;;;;0.20;0.10;;;;;;;;;;10113890;29;20092;-88
2023/08/02 14:52:43;;;;;;;0.25;0.25;;;;;;;;;;10114229;29;20535;-89
2023/08/02 14:57:48;;;;;;;0.25;0.22;;;;;;;;;;10102128;29;20055;-88
2023/08/02 15:02:57;;;;;;;0.15;0.15;;;;;;;;;;10118567;29;20072;-88
2023/08/02 15:08:01;;;;;;;0.20;0.20;;;;;;;;;;10109885;29;20702;-88
2023/08/02 15:13:17;;;;;;;0.10;0.10;;;;;;;;;;10109299;29;20059;-89
2023/08/02 15:18:29;;;;;;;0.20;0.20;;;;;;;;;;10124984;29;20135;-90
2023/08/02 15:29:37;;;;;;;0.20;0.20;;;;;;;;;;10115751;29;20061;-87
2023/08/02 15:34:58;;;;;;;0.50;0.30;;;;;;;;;;10125581;29;20086;-86
2023/08/02 15:40:08;;;;;;;0.30;0.30;;;;;;;;;;10133283;29;20052;-87
2023/08/02 15:45:16;;;;;;;0.50;0.40;;;;;;;;;;10117451;29;20131;-87
2023/08/02 15:50:21;;;;;;;0.30;0.20;;;;;;;;;;10117814;29;20056;-86
2023/08/02 15:55:25;;;;;;;0.20;0.20;;;;;;;;;;10122851;29;20062;-87
2023/08/02 16:00:29;;;;;;;0.57;0.50;;;;;;;;;;10115379;29;20108;-86
2023/08/02 16:05:37;;;;;;;0.40;0.30;;;;;;;;;;10120759;29;20049;-86
2023/08/02 16:10:42;;;;;;;0.30;0.30;;;;;;;;;;10115636;29;20074;-89
2023/08/02 16:15:52;;;;;;;1.40;0.40;;;;;;;;;;10135121;29;20048;-88
2023/08/02 16:20:57;;;;;;;0.22;0.20;;;;;;;;;;10141840;29;20044;-88
2023/08/02 16:26:06;;;;;;;0.40;0.30;;;;;;;;;;10109355;29;20060;-88
2023/08/02 16:31:10;;;;;;;0.40;0.25;;;;;;;;;;10127083;29;20117;-85
2023/08/02 16:36:17;;;;;;;0.65;0.40;;;;;;;;;;10117272;29;20132;-86
2023/08/02 16:41:21;;;;;;;0.88;0.43;;;;;;;;;;10127052;29;20051;-86
2023/08/02 16:46:27;;;;;;;0.70;0.40;;;;;;;;;;10124460;29;20582;-86
2023/08/02 16:51:34;;;;;;;1.17;0.50;;;;;;;;;;10125935;29;20052;-87
2023/08/02 17:02:48;;;;;;;0.63;0.38;;;;;;;;;;10116428;29;20061;-86
2023/08/02 17:07:53;;;;;;;0.80;0.55;;;;;;;;;;10118848;29;20056;-85
2023/08/02 17:12:56;;;;;;;2.47;0.60;;;;;;;;;;10142834;29;20041;-86
2023/08/02 17:18:00;;;;;;;0.75;0.50;;;;;;;;;;10135367;29;20044;-85
2023/08/02 17:23:28;;;;;;;1.02;0.50;;;;;;;;;;10122134;29;20095;-85
2023/08/02 17:28:35;;;;;;;2.42;0.70;;;;;;;;;;10131248;29;20523;-84
2023/08/02 17:33:40;;;;;;;0.93;0.60;;;;;;;;;;10357916;23;20048;-88
2023/08/02 17:38:48;;;;;;;3.77;1.20;;;;;;;;;;10185818;29;20427;-89
2023/08/02 17:43:54;;;;;;;2.30;1.00;;;;;;;;;;10167149;29;20043;-89
2023/08/02 17:49:00;;;;;;;2.53;0.82;;;;;;;;;;10147819;29;20052;-89
2023/08/02 17:54:06;;;;;;;2.63;1.05;;;;;;;;;;10152956;29;20227;-88
2023/08/02 17:59:12;;;;;;;2.97;0.97;;;;;;;;;;10146157;29;20055;-86
2023/08/02 18:04:16;;;;;;;3.53;1.13;;;;;;;;;;10153044;29;20072;-88
2023/08/02 18:09:29;;;;;;;3.45;1.13;;;;;;;;;;10160023;29;20051;-88
2023/08/02 18:14:33;;;;;;;1.88;0.80;;;;;;;;;;10142310;29;20100;-89
2023/08/02 18:19:38;;;;;;;4.32;1.20;;;;;;;;;;10173393;29;20048;-90
2023/08/02 18:24:43;;;;;;;4.22;0.98;;;;;;;;;;10154456;29;20382;-89
2023/08/02 18:29:51;;;;;;;3.05;0.85;;;;;;;;;;10152104;29;20108;-89
2023/08/02 18:35:11;;;;;;;2.75;0.95;;;;;;;;;;10173832;29;20075;-88
2023/08/02 18:40:17;;;;;;;2.50;0.88;;;;;;;;;;10152320;29;20075;-89
2023/08/02 18:45:20;;;;;;;3.42;1.00;;;;;;;;;;10157255;29;20504;-90
2023/08/02 18:50:25;;;;;;;4.85;0.90;;;;;;;;;;10160772;29;20051;-90
2023/08/02 18:55:36;;;;;;;4.32;1.35;;;;;;;;;;10148141;29;20701;-89
2023/08/02 19:00:41;;;;;;;4.25;1.40;;;;;;;;;;10150974;29;20507;-90
2023/08/02 19:05:45;;;;;;;4.22;1.20;;;;;;;;;;10158335;29;20064;-89
2023/08/02 19:10:50;;;;;;;5.57;1.50;;;;;;;;;;10155804;29;20044;-88
2023/08/02 19:15:54;;;;;;;3.22;1.17;;;;;;;;;;10159442;29;20142;-89
2023/08/02 19:20:58;;;;;;;3.70;1.00;;;;;;;;;;10176371;29;20044;-88
2023/08/02 19:26:03;;;;;;;2.75;1.05;;;;;;;;;;10166125;29;20158;-90
2023/08/02 19:31:18;;;;;;;4.07;1.20;;;;;;;;;;10147560;29;20040;-89
2023/08/02 19:36:25;;;;;;;3.47;1.13;;;;;;;;;;10154955;29;20051;-87
2023/08/02 19:41:33;;;;;;;2.67;1.30;;;;;;;;;;10167402;29;20052;-87
2023/08/02 19:46:39;;;;;;;2.97;1.00;;;;;;;;;;10154076;29;20123;-89
2023/08/02 19:51:43;;;;;;;;;;;;;;;;;;10156389;29;20056;-89
2023/08/02 19:56:51;;;;;;;5.32;1.48;;;;;;;;;;10164426;29;20010;-90
2023/08/02 20:01:57;;;;;;;4.03;1.17;;;;;;;;;;10143455;29;20100;-89
2023/08/02 20:07:07;;;;;;;6.00;0.88;;;;;;;;;;10164846;29;20802;-89
2023/08/02 20:12:14;;;;;;;3.15;1.05;;;;;;;;;;10165911;29;20095;-91
2023/08/02 20:17:18;;;;;;;3.42;1.20;;;;;;;;;;10158285;29;20135;-90
2023/08/02 20:22:23;;;;;;;3.97;1.27;;;;;;;;;;10161060;29;20044;-91
2023/08/02 20:27:29;;;;;;;5.78;1.15;;;;;;;;;;10162797;29;20044;-89
2023/08/02 20:32:35;;;;;;;5.05;1.15;;;;;;;;;;10163096;29;20048;-91
2023/08/02 20:37:39;;;;;;;;;;;;;;;;;;10153949;29;20123;-92
2023/08/02 20:42:44;;;;;;;4.00;1.15;;;;;;;;;;10141978;29;19923;-89
2023/08/02 20:47:48;;;;;;;4.10;1.40;;;;;;;;;;10150992;29;20056;-91
2023/08/02 20:52:55;;;;;;;5.28;1.58;;;;;;;;;;10163098;29;20053;-90
2023/08/02 20:58:00;;;;;;;3.17;1.02;;;;;;;;;;10165365;29;20053;-90
2023/08/02 21:03:07;;;;;;;4.05;1.30;;;;;;;;;;10158409;29;20059;-90
2023/08/02 21:08:12;;;;;;;3.53;0.95;;;;;;;;;;10157039;29;20072;-88
2023/08/02 21:13:17;;;;;;;2.13;0.73;;;;;;;;;;10153448;29;20049;-86
2023/08/02 21:18:30;;;;;;;2.22;1.00;;;;;;;;;;10165781;29;20048;-87
2023/08/02 21:23:34;;;;;;;1.20;0.60;;;;;;;;;;10149366;29;20048;-87
2023/08/02 21:28:40;;;;;;;7.82;1.38;;;;;;;;;;10153653;29;20055;-87
2023/08/02 21:33:44;;;;;;;7.35;1.40;;;;;;;;;;10168150;29;20056;-86
2023/08/02 21:38:48;;;;;;;3.15;0.90;;;;;;;;;;10164858;29;20159;-86
2023/08/02 21:43:55;;;;;;;3.67;0.98;;;;;;;;;;10141204;29;20076;-87
2023/08/02 21:48:58;;;;;;;4.10;1.33;;;;;;;;;;10163545;29;20051;-86
2023/08/02 21:54:02;;;;;;;4.10;0.82;;;;;;;;;;10146835;29;20048;-87
2023/08/02 21:59:09;;;;;;;3.58;1.27;;;;;;;;;;10159896;29;20076;-86
2023/08/02 22:04:13;;;;;;;3.75;1.17;;;;;;;;;;10149579;29;20056;-88
2023/08/02 22:09:16;;;;;;;3.45;1.20;;;;;;;;;;10151605;29;20040;-86
2023/08/02 22:14:21;;;;;;;6.60;1.33;;;;;;;;;;10155553;29;20051;-83
2023/08/02 22:19:24;;;;;;;3.15;1.02;;;;;;;;;;10149749;29;20052;-83
2023/08/02 22:24:28;;;;;;;4.88;1.17;;;;;;;;;;10154623;29;20048;-82
2023/08/02 22:29:33;;;;;;;4.20;1.00;;;;;;;;;;10158032;29;20099;-82
2023/08/02 22:34:37;;;;;;;3.22;0.80;;;;;;;;;;10143070;29;20059;-83
2023/08/02 22:39:40;;;;;;;3.35;0.70;;;;;;;;;;10142826;29;20075;-83
2023/08/02 22:44:45;;;;;;;1.10;0.47;;;;;;;;;;10141869;29;20705;-83
2023/08/02 22:49:49;;;;;;;3.47;1.10;;;;;;;;;;10150727;29;20055;-83
2023/08/02 22:54:55;;;;;;;4.90;1.35;;;;;;;;;;10143154;29;20571;-83
2023/08/02 23:00:02;;;;;;;5.25;0.88;;;;;;;;;;10148668;29;20051;-82
2023/08/02 23:05:28;;;;;;;1.45;0.70;;;;;;;;;;10145231;29;20052;-83
2023/08/02 23:10:38;;;;;;;1.95;0.70;;;;;;;;;;10148886;29;20596;-83
2023/08/02 23:15:43;;;;;;;3.17;0.88;;;;;;;;;;10145843;29;20107;-82
2023/08/02 23:20:48;;;;;;;2.42;0.90;;;;;;;;;;10156499;29;20040;-83
2023/08/02 23:25:58;;;;;;;1.97;0.90;;;;;;;;;;10143897;29;20131;-82
2023/08/02 23:31:05;;;;;;;4.38;1.20;;;;;;;;;;10159485;29;20047;-82
2023/08/02 23:36:09;;;;;;;4.50;0.95;;;;;;;;;;10144205;29;20044;-82
2023/08/02 23:41:12;;;;;;;4.22;0.85;;;;;;;;;;10158402;29;20545;-82
2023/08/02 23:46:17;;;;;;;1.63;0.68;;;;;;;;;;10159117;29;20087;-83
2023/08/02 23:51:22;;;;;;;5.37;1.43;;;;;;;;;;10170339;29;20156;-83
2023/08/02 23:56:25;;;;;;;3.83;0.95;;;;;;;;;;10155780;29;20700;-83
